메인 페이지
METAR-TAF:

METAR-TAF

공항 :

뭄바이, 인도

차트라파티 시바지 국제공항

위도: 19-07N, 경도: 072-51E, 고도: 8m

현재 날씨관측

예보는 16분 전, 00:30시(UTC)에 발표되었습니다.
3kt
온도 24°C
습도 44%
기압 1010 hPa
시정: 3000m
연기

METAR: VABB 180030Z 35003KT 3000 FU NSC 24/11 Q1010 NOSIG

시각: 06:16 (00:46 UTC)

예보

예보는 1 시간 46분 전, 23:00시(UTC)에 발표되었습니다.
예보 대상 시간: 18일 00시부터 19일 06시까지 (UTC)
북북서5kt
시정: 3000m
연기
전환 중
18일 04시부터 18일 06시까지 (UTC)
동북동5kt
전환 중
18일 06시부터 18일 08시까지 (UTC)
8kt
전환 중
18일 09시부터 18일 11시까지 (UTC)
북북서8kt
시정: 5000m
연기
전환 중
18일 15시부터 18일 17시까지 (UTC)
시정: 3000m
연기
전환 중
18일 18시부터 18일 20시까지 (UTC)
5kt
전환 중
18일 21시부터 18일 23시까지 (UTC)
여러 방향의 바람 3kt
전환 중
19일 04시부터 19일 06시까지 (UTC)
동북동5kt

TAF: VABB 172300Z 1800/1906 34005KT 3000 FU NSC BECMG 1804/1806 07005KT BECMG 1806/1808 27008KT BECMG 1809/1811 33008KT 5000 FU BECMG 1815/1817 3000 FU BECMG 1818/1820 09005KT BECMG 1821/1823 VRB03KT BECMG 1904/1906 07005KT

4,000개 이상의 공항 관측 자료 및 예보 (METAR 및 TAF 보고).

지도상에서 검색 가능한 기상관측소가 노란 점과 빨간 점으로 표시되어 있습니다.

기상관측소 명을 보려면 표시 위로 마우스를 이동하세요.

날씨 관측과 예보를 보려면 클릭하세요.

지도 변경 : 확대하려면 엑스 표시가 있는 녹색 버튼, 축소하려면 빼기 표시가 있는 녹색 버튼, 다음 페이지의 지도를 보려면 녹색 화살표를 클릭하세요.


METAR-TAF: